Time;durP1;ratioP1;P1;durP2;ratioP2;P2;SDS_P1;SDS_P2;PMS_P1;PMS_P2;Temp;Humidity;BMP_temperature;BMP_pressure;BME280_temperature;BME280_humidity;BME280_pressure;Samples;Min_cycle;Max_cycle;Signal;HPM_P1;HPM_P2
2022/06/25 00:00:04;;;;;;;9.07;2.65;;;;;;;28.15;38.32;100737.66;5026133;28;20041;-80
2022/06/25 00:02:30;;;;;;;6.90;2.65;;;;;;;28.18;38.22;100745.38;5019314;28;20068;-80
2022/06/25 00:07:42;;;;;;;8.52;3.28;;;;;;;28.00;38.37;100737.44;5046418;28;20049;-80
2022/06/25 00:10:09;;;;;;;7.93;2.72;;;;;;;28.04;38.07;100731.25;5028577;28;20076;-80
2022/06/25 00:12:36;;;;;;;7.75;3.30;;;;;;;28.22;37.86;100745.69;5046293;28;20051;-80
2022/06/25 00:15:05;;;;;;;10.20;2.60;;;;;;;28.22;38.08;100735.59;5028706;28;20056;-80
2022/06/25 00:17:33;;;;;;;5.90;2.72;;;;;;;28.00;38.33;100721.88;5029115;28;20056;-81
2022/06/25 00:20:01;;;;;;;8.00;2.58;;;;;;;27.91;38.47;100721.50;5028881;28;20494;-80
2022/06/25 00:22:28;;;;;;;3.97;2.30;;;;;;;28.05;38.76;100742.97;5028555;28;20044;-80
2022/06/25 00:24:54;;;;;;;11.00;3.10;;;;;;;27.77;38.38;100694.75;5028598;28;20053;-80
2022/06/25 00:27:22;;;;;;;8.93;2.50;;;;;;;27.97;38.49;100736.03;5028448;28;20060;-79
2022/06/25 00:29:48;;;;;;;5.68;2.15;;;;;;;28.02;38.87;100735.28;5029048;28;20229;-80
2022/06/25 00:32:16;;;;;;;7.70;2.33;;;;;;;27.86;38.83;100721.38;5028836;28;20297;-80
2022/06/25 00:34:43;;;;;;;8.20;2.72;;;;;;;27.94;38.91;100739.28;5028434;28;20458;-80
2022/06/25 00:37:10;;;;;;;9.07;2.55;;;;;;;27.52;39.06;100670.63;5028697;28;20088;-79
2022/06/25 00:39:37;;;;;;;4.15;2.20;;;;;;;27.85;38.87;100740.75;5028987;28;20056;-79
2022/06/25 00:42:09;;;;;;;7.93;2.70;;;;;;;27.69;39.02;100710.44;5032314;28;20124;-79
2022/06/25 00:44:36;;;;;;;7.28;2.33;;;;;;;27.54;38.92;100682.13;5033482;28;20048;-79
2022/06/25 00:47:07;;;;;;;12.65;3.63;;;;;;;27.51;39.23;100693.53;5033783;28;20049;-81
2022/06/25 00:49:33;;;;;;;8.10;2.97;;;;;;;27.59;39.31;100704.81;5051484;28;20060;-79
2022/06/25 00:52:05;;;;;;;10.63;2.88;;;;;;;27.75;38.88;100722.28;5051285;28;20049;-81
2022/06/25 00:54:35;;;;;;;6.38;2.30;;;;;;;27.75;38.88;100725.00;5033103;28;20057;-80
2022/06/25 00:57:05;;;;;;;9.05;2.92;;;;;;;27.78;38.96;100729.97;5032770;28;20053;-79
2022/06/25 00:59:36;;;;;;;10.10;2.40;;;;;;;27.69;38.99;100726.81;5032246;28;20324;-79
2022/06/25 01:02:03;;;;;;;11.95;3.22;;;;;;;27.63;39.07;100721.53;5031693;28;20477;-80
2022/06/25 01:04:30;;;;;;;9.98;2.85;;;;;;;27.58;39.04;100713.28;5031418;28;20095;-80
2022/06/25 01:06:57;;;;;;;7.97;2.22;;;;;;;27.64;39.23;100734.09;5031945;28;20053;-79
2022/06/25 01:09:25;;;;;;;11.50;2.78;;;;;;;27.18;39.17;100662.38;5031469;28;20057;-80
2022/06/25 01:11:51;;;;;;;9.88;2.70;;;;;;;27.39;39.07;100710.75;5031989;28;20045;-80
2022/06/25 01:14:18;;;;;;;14.45;2.75;;;;;;;27.60;39.03;100743.81;5031614;28;20060;-79
2022/06/25 01:16:45;;;;;;;10.98;2.53;;;;;;;26.89;39.23;100643.31;5049582;28;20049;-79
2022/06/25 01:19:12;;;;;;;7.35;2.33;;;;;;;27.10;39.26;100690.84;5031827;28;20312;-79
2022/06/25 01:21:40;;;;;;;10.60;2.50;;;;;;;27.51;39.21;100746.16;5031355;28;20052;-80
2022/06/25 01:24:07;;;;;;;16.45;2.47;;;;;;;27.15;39.59;100703.75;5031014;28;20053;-80
2022/06/25 01:26:39;;;;;;;8.07;2.60;;;;;;;27.32;39.39;100714.72;5031144;28;20644;-80
2022/06/25 01:29:07;;;;;;;6.88;2.72;;;;;;;27.51;39.54;100743.41;5031209;28;20690;-80
2022/06/25 01:31:34;;;;;;;11.52;3.13;;;;;;;27.48;39.52;100742.00;5031400;28;20447;-80
2022/06/25 01:34:01;;;;;;;8.23;2.30;;;;;;;27.29;39.63;100705.13;5031403;28;20055;-80
2022/06/25 01:36:28;;;;;;;14.95;3.13;;;;;;;27.12;39.22;100664.19;5049120;28;20081;-79
2022/06/25 01:38:55;;;;;;;9.40;2.67;;;;;;;27.52;39.60;100736.06;5031176;28;20394;-80
2022/06/25 01:41:21;;;;;;;10.00;3.50;;;;;;;27.64;39.35;100750.44;5031590;28;20053;-79
2022/06/25 01:43:48;;;;;;;9.70;2.83;;;;;;;27.65;39.48;100757.56;5031062;28;20111;-80
2022/06/25 01:46:15;;;;;;;11.18;2.80;;;;;;;27.62;39.58;100752.59;5049101;28;20118;-79
2022/06/25 01:48:42;;;;;;;9.60;3.25;;;;;;;27.55;40.32;100746.47;5030716;28;20442;-80
2022/06/25 01:51:09;;;;;;;8.05;2.85;;;;;;;27.46;40.22;100741.44;5031032;28;20107;-78
2022/06/25 01:53:36;;;;;;;13.05;2.78;;;;;;;26.96;40.54;100681.31;5029205;28;20530;-80
2022/06/25 01:56:03;;;;;;;6.93;2.47;;;;;;;27.38;40.54;100752.75;5031183;28;20084;-79
2022/06/25 01:58:30;;;;;;;6.57;2.60;;;;;;;27.27;40.45;100739.97;5048965;28;20044;-79
2022/06/25 02:00:57;;;;;;;10.15;3.40;;;;;;;27.30;40.64;100744.94;5048476;28;20534;-79
2022/06/25 02:03:23;;;;;;;5.53;2.80;;;;;;;27.31;40.79;100752.06;5030698;28;20400;-79
2022/06/25 02:05:57;;;;;;;11.43;2.55;;;;;;;27.06;40.80;100712.31;5030687;28;20049;-79
2022/06/25 02:08:24;;;;;;;7.10;2.50;;;;;;;27.07;40.96;100719.41;5048612;28;20435;-79
2022/06/25 02:10:52;;;;;;;8.23;2.47;;;;;;;27.00;41.24;100701.56;5048447;28;20095;-79
2022/06/25 02:13:19;;;;;;;8.27;2.40;;;;;;;27.11;41.26;100743.44;5048680;28;20048;-79
2022/06/25 02:15:46;;;;;;;10.38;2.90;;;;;;;27.17;40.90;100740.59;5030498;28;20056;-79
2022/06/25 02:18:13;;;;;;;11.18;3.08;;;;;;;27.02;41.02;100738.38;5030917;28;20045;-79
2022/06/25 02:20:40;;;;;;;8.75;2.67;;;;;;;27.21;41.35;100763.59;5030756;28;20669;-78
2022/06/25 02:23:09;;;;;;;10.27;2.65;;;;;;;27.16;41.37;100770.78;5030468;28;20049;-78
2022/06/25 02:25:36;;;;;;;9.85;3.55;;;;;;;26.64;41.35;100704.38;5030574;28;20110;-77
2022/06/25 02:28:05;;;;;;;7.72;2.45;;;;;;;27.10;41.64;100780.75;5030983;28;20741;-78
2022/06/25 02:30:32;;;;;;;12.00;2.47;;;;;;;27.22;41.04;100770.69;5030778;28;20087;-79
2022/06/25 02:32:59;;;;;;;7.55;2.75;;;;;;;26.93;41.57;100734.38;5031685;28;20569;-78
2022/06/25 02:35:25;;;;;;;18.95;3.35;;;;;;;27.06;41.79;100766.81;5039256;28;20103;-79
2022/06/25 02:37:52;;;;;;;12.07;3.75;;;;;;;26.89;41.94;100741.38;5065779;28;20049;-79
2022/06/25 02:40:19;;;;;;;9.75;3.80;;;;;;;26.81;42.34;100745.31;5050333;28;20044;-80
2022/06/25 02:42:46;;;;;;;8.93;3.00;;;;;;;26.84;42.25;100757.63;5052863;28;20040;-80
2022/06/25 02:45:13;;;;;;;5.35;2.63;;;;;;;26.60;42.36;100724.16;5035173;28;20096;-80
2022/06/25 02:47:40;;;;;;;8.52;3.00;;;;;;;26.83;42.52;100761.41;5028180;28;20415;-80
2022/06/25 02:50:07;;;;;;;5.80;2.95;;;;;;;26.54;42.82;100723.22;5027185;28;20049;-79
2022/06/25 02:52:35;;;;;;;10.23;2.72;;;;;;;26.75;43.00;100759.06;5027518;28;20346;-80
2022/06/25 02:55:01;;;;;;;8.23;2.83;;;;;;;26.77;42.98;100756.91;5010847;28;20049;-80
2022/06/25 03:00:13;;;;;;;12.40;2.50;;;;;;;26.61;43.29;100743.00;5032568;28;20053;-79
2022/06/25 03:02:41;;;;;;;7.05;2.10;;;;;;;26.79;42.97;100755.59;5018839;28;20491;-80
2022/06/25 03:05:09;;;;;;;10.52;2.75;;;;;;;26.76;43.12;100750.66;5012295;28;20503;-80
2022/06/25 03:07:36;;;;;;;8.65;2.28;;;;;;;26.86;42.74;100763.66;5028220;28;20144;-79
2022/06/25 03:10:03;;;;;;;8.63;2.58;;;;;;;26.96;42.23;100766.59;5028011;28;20049;-79
2022/06/25 03:12:30;;;;;;;9.23;2.70;;;;;;;26.75;42.44;100731.81;5010431;28;20061;-80
2022/06/25 03:14:57;;;;;;;7.05;2.42;;;;;;;26.79;43.19;100757.50;5028441;28;20167;-79
2022/06/25 03:17:23;;;;;;;13.00;2.92;;;;;;;26.61;43.38;100736.72;5010142;28;20055;-80
2022/06/25 03:19:50;;;;;;;7.13;2.60;;;;;;;26.43;43.68;100727.59;5027677;28;20235;-80
2022/06/25 03:22:17;;;;;;;7.70;2.50;;;;;;;26.54;43.65;100736.84;5009900;28;20088;-80
2022/06/25 03:24:43;;;;;;;7.88;2.38;;;;;;;26.59;43.55;100761.44;5009923;28;20426;-80
2022/06/25 03:27:10;;;;;;;6.43;2.35;;;;;;;26.54;43.76;100749.63;5009766;28;20474;-81
2022/06/25 03:29:37;;;;;;;10.35;3.13;;;;;;;26.25;43.92;100714.13;5010189;28;20049;-79
2022/06/25 03:32:04;;;;;;;5.95;2.70;;;;;;;26.40;43.98;100749.00;5009925;28;20067;-80
2022/06/25 03:34:30;;;;;;;7.47;2.53;;;;;;;26.38;44.21;100760.13;5009234;28;20657;-80
2022/06/25 03:36:57;;;;;;;10.07;2.90;;;;;;;26.28;44.07;100748.19;5009479;28;20100;-80
2022/06/25 03:39:24;;;;;;;10.82;3.00;;;;;;;26.17;44.39;100737.06;5013111;28;20049;-79
2022/06/25 03:41:50;;;;;;;7.10;2.50;;;;;;;26.18;44.79;100749.59;5009353;28;20577;-80
2022/06/25 03:44:17;;;;;;;9.77;2.58;;;;;;;26.20;44.35;100752.91;5025575;28;20049;-80
2022/06/25 03:46:44;;;;;;;9.85;3.00;;;;;;;26.27;44.65;100773.75;5027133;28;20587;-80
2022/06/25 03:49:11;;;;;;;7.90;2.83;;;;;;;26.41;44.62;100780.63;5025798;28;20137;-80
2022/06/25 03:51:37;;;;;;;8.27;2.17;;;;;;;26.53;44.84;100800.53;5027157;28;20108;-80
2022/06/25 03:54:04;;;;;;;10.15;3.58;;;;;;;26.52;44.87;100798.81;5029190;28;20080;-80
2022/06/25 03:56:31;;;;;;;11.40;2.85;;;;;;;26.38;44.31;100768.28;5046823;28;20048;-80
2022/06/25 03:58:57;;;;;;;14.27;2.92;;;;;;;26.62;44.57;100814.59;5046565;28;20462;-80
2022/06/25 04:01:24;;;;;;;8.10;3.15;;;;;;;26.59;44.29;100817.81;5028395;28;20045;-80
2022/06/25 04:03:51;;;;;;;6.78;2.60;;;;;;;26.57;44.15;100798.16;5029026;28;20052;-80
2022/06/25 04:06:19;;;;;;;8.40;2.83;;;;;;;26.71;44.50;100828.69;5028648;28;20064;-80
2022/06/25 04:08:45;;;;;;;9.35;3.38;;;;;;;26.65;44.55;100822.28;5028815;28;20487;-80
2022/06/25 04:11:12;;;;;;;9.88;2.80;;;;;;;26.64;44.79;100812.47;5028747;28;20076;-80
2022/06/25 04:13:39;;;;;;;8.73;2.70;;;;;;;26.62;44.52;100818.16;5028387;28;20059;-80
2022/06/25 04:16:05;;;;;;;7.72;2.47;;;;;;;26.71;44.78;100826.78;5046112;28;20091;-80
2022/06/25 04:18:32;;;;;;;5.15;2.33;;;;;;;26.32;44.75;100763.00;5028369;28;20044;-80
2022/06/25 04:20:59;;;;;;;13.30;3.17;;;;;;;26.40;44.80;100781.69;5028573;28;20162;-79
2022/06/25 04:23:27;;;;;;;7.88;3.15;;;;;;;26.59;45.43;100817.81;5046115;28;20136;-80
2022/06/25 04:25:54;;;;;;;14.98;3.13;;;;;;;26.69;45.26;100828.91;5028508;28;20102;-80
2022/06/25 04:31:07;;;;;;;9.07;3.20;;;;;;;26.38;44.60;100768.28;5046095;28;20053;-80
2022/06/25 04:33:34;;;;;;;7.18;2.42;;;;;;;26.74;44.41;100804.53;5046103;28;20049;-80
2022/06/25 04:36:00;;;;;;;13.32;3.83;;;;;;;27.02;44.26;100841.91;5028453;28;20056;-80
2022/06/25 04:38:27;;;;;;;11.10;3.65;;;;;;;26.84;44.03;100822.97;5028002;28;20388;-80
2022/06/25 04:40:54;;;;;;;6.07;3.65;;;;;;;26.86;44.52;100826.31;5024926;28;20042;-79
2022/06/25 04:43:21;;;;;;;8.32;2.97;;;;;;;26.97;44.74;100847.25;5026400;28;20466;-79
2022/06/25 04:45:48;;;;;;;8.20;3.03;;;;;;;26.93;45.11;100854.25;5024791;28;20053;-80
2022/06/25 04:48:14;;;;;;;10.18;3.25;;;;;;;26.87;44.78;100838.88;5025125;28;20075;-78
2022/06/25 04:50:43;;;;;;;6.40;2.78;;;;;;;26.69;44.75;100819.94;5024484;28;20045;-80
2022/06/25 04:53:11;;;;;;;5.75;3.08;;;;;;;26.95;44.71;100848.56;5034289;28;20041;-80
2022/06/25 04:55:38;;;;;;;6.15;2.47;;;;;;;27.06;45.21;100867.63;5028013;28;20620;-76
2022/06/25 04:58:05;;;;;;;12.77;2.97;;;;;;;26.72;46.36;100830.34;5014566;28;20073;-79
2022/06/25 05:00:32;;;;;;;11.68;3.47;;;;;;;26.94;46.13;100861.34;5008310;28;20049;-79
2022/06/25 05:03:06;;;;;;;7.32;2.92;;;;;;;26.93;46.98;100858.88;5024764;28;20104;-79
2022/06/25 05:05:33;;;;;;;10.48;2.85;;;;;;;26.83;47.00;100856.75;5009132;28;20487;-80
2022/06/25 05:08:00;;;;;;;8.98;2.90;;;;;;;26.72;46.96;100842.06;5008834;28;20180;-80
2022/06/25 05:10:27;;;;;;;9.10;3.50;;;;;;;26.89;47.32;100861.22;5026050;28;20049;-79
2022/06/25 05:13:12;;;;;;;8.68;3.22;;;;;;;26.96;47.03;100861.94;5027960;28;20169;-78
2022/06/25 05:15:40;;;;;;;6.60;3.22;;;;;;;26.85;47.01;100847.28;5027678;28;20049;-79
2022/06/25 05:18:08;;;;;;;6.65;3.58;;;;;;;26.93;46.93;100865.13;5046484;28;20280;-78
2022/06/25 05:20:43;;;;;;;6.20;3.30;;;;;;;26.74;48.35;100852.72;5028697;28;20053;-79
2022/06/25 05:23:10;;;;;;;12.73;4.00;;;;;;;26.93;46.70;100869.75;5032325;28;20122;-80
2022/06/25 05:25:38;;;;;;;9.55;3.85;;;;;;;26.88;46.91;100851.41;5033561;28;20056;-79
2022/06/25 05:28:05;;;;;;;14.32;3.90;;;;;;;26.82;46.74;100855.06;5053254;28;20056;-80
2022/06/25 05:30:32;;;;;;;8.73;4.10;;;;;;;26.85;46.83;100874.50;5037571;28;20052;-78
2022/06/25 05:32:59;;;;;;;8.98;3.53;;;;;;;26.83;46.96;100862.19;5039183;28;20053;-79
2022/06/25 05:35:27;;;;;;;9.57;3.40;;;;;;;26.61;47.39;100834.75;5032258;28;20542;-79
2022/06/25 05:37:54;;;;;;;8.48;3.88;;;;;;;26.92;47.50;100896.19;5048977;28;20053;-80
2022/06/25 05:40:21;;;;;;;10.20;3.58;;;;;;;26.92;47.70;100889.88;5050004;28;20045;-79
2022/06/25 05:42:47;;;;;;;5.63;3.50;;;;;;;26.77;47.92;100872.13;5033162;28;20521;-79
2022/06/25 05:45:14;;;;;;;13.32;4.50;;;;;;;26.78;48.15;100862.06;5048901;28;20060;-78
2022/06/25 05:47:41;;;;;;;7.90;3.72;;;;;;;27.14;47.35;100901.00;5050648;28;20083;-79
2022/06/25 05:50:08;;;;;;;12.25;4.15;;;;;;;27.15;47.40;100892.59;5026083;28;20061;-79
2022/06/25 05:52:36;;;;;;;9.27;3.70;;;;;;;26.35;47.74;100760.59;5035821;28;20585;-79
2022/06/25 05:55:03;;;;;;;16.95;4.10;;;;;;;27.30;47.52;100900.28;5031689;28;20428;-79
2022/06/25 05:57:30;;;;;;;11.45;4.15;;;;;;;27.28;47.29;100894.25;5031462;28;20494;-79
2022/06/25 05:59:58;;;;;;;11.15;3.83;;;;;;;26.52;46.42;100727.22;5032358;28;20098;-79
2022/06/25 06:02:27;;;;;;;10.35;3.45;;;;;;;27.27;45.97;100835.38;5050338;28;20522;-79
2022/06/25 06:04:55;;;;;;;6.50;3.30;;;;;;;27.73;46.58;100912.63;5032802;28;20132;-80
2022/06/25 06:07:23;;;;;;;12.05;4.18;;;;;;;27.44;46.12;100862.69;5050242;28;20060;-79
2022/06/25 06:09:50;;;;;;;7.47;3.63;;;;;;;27.68;46.00;100877.06;5032624;28;20052;-76
2022/06/25 06:12:19;;;;;;;6.93;3.10;;;;;;;27.85;46.15;100916.16;5050408;28;20111;-79
2022/06/25 06:14:46;;;;;;;8.50;4.03;;;;;;;28.03;45.54;100917.03;5032693;28;20041;-81
2022/06/25 06:17:13;;;;;;;9.52;3.78;;;;;;;28.01;45.62;100911.84;5032644;28;20060;-80
2022/06/25 06:19:40;;;;;;;12.13;4.30;;;;;;;27.92;45.50;100889.56;5032736;28;20075;-79
2022/06/25 06:22:06;;;;;;;11.18;3.78;;;;;;;28.08;45.30;100911.66;5032713;28;20080;-80
2022/06/25 06:24:42;;;;;;;7.93;3.72;;;;;;;27.85;45.24;100882.59;5033608;28;20051;-80
2022/06/25 06:27:09;;;;;;;10.65;4.05;;;;;;;28.07;45.59;100916.28;5032458;28;20057;-80
2022/06/25 06:29:36;;;;;;;9.40;3.88;;;;;;;27.93;45.78;100895.84;5032000;28;20063;-80
2022/06/25 06:32:04;;;;;;;11.73;4.18;;;;;;;28.15;45.26;100895.13;5032666;28;20060;-80
2022/06/25 06:34:31;;;;;;;11.48;4.00;;;;;;;28.18;44.69;100878.25;5049699;28;20045;-79
2022/06/25 06:36:57;;;;;;;6.38;3.20;;;;;;;28.35;45.10;100920.03;5050025;28;20053;-80
2022/06/25 06:39:24;;;;;;;7.75;3.78;;;;;;;28.48;45.15;100919.75;5031319;28;20049;-79
2022/06/25 06:41:51;;;;;;;8.35;4.13;;;;;;;27.89;45.36;100835.50;5032164;28;20126;-79
2022/06/25 06:44:17;;;;;;;8.50;3.97;;;;;;;28.17;45.23;100868.44;5031838;28;20422;-79
2022/06/25 06:46:44;;;;;;;9.00;3.65;;;;;;;28.30;45.54;100889.94;5049477;28;20053;-79
2022/06/25 06:49:11;;;;;;;11.60;3.88;;;;;;;28.55;44.74;100920.44;5032477;28;20114;-79
2022/06/25 06:51:37;;;;;;;9.23;4.10;;;;;;;28.29;44.79;100878.19;5051865;28;20052;-77
2022/06/25 06:54:04;;;;;;;14.13;3.65;;;;;;;28.34;44.29;100886.47;5026159;28;20057;-80
2022/06/25 06:56:31;;;;;;;7.43;3.67;;;;;;;28.45;44.42;100903.00;5048891;28;20066;-80
2022/06/25 06:58:58;;;;;;;7.18;4.20;;;;;;;28.32;44.05;100864.03;5035638;28;20053;-80
2022/06/25 07:01:24;;;;;;;8.15;3.42;;;;;;;28.79;44.03;100922.13;5016316;28;20049;-80
2022/06/25 07:03:51;;;;;;;10.65;3.70;;;;;;;28.85;44.49;100918.44;5029402;28;20252;-79
2022/06/25 07:06:18;;;;;;;9.82;3.45;;;;;;;28.75;44.01;100914.44;5011202;28;20053;-78
2022/06/25 07:08:44;;;;;;;6.85;2.85;;;;;;;28.91;43.54;100920.13;5010937;28;20060;-77
2022/06/25 07:11:29;;;;;;;9.57;3.45;;;;;;;28.81;43.76;100922.72;5022493;28;20041;-77
2022/06/25 07:14:01;;;;;;;14.25;3.83;;;;;;;28.53;43.87;100884.34;5026529;28;20462;-79
2022/06/25 07:16:28;;;;;;;9.80;3.55;;;;;;;28.30;43.95;100840.78;5027368;28;20053;-79
2022/06/25 07:18:57;;;;;;;7.40;3.03;;;;;;;28.65;43.21;100892.44;5027591;28;20144;-80
2022/06/25 07:21:25;;;;;;;8.15;3.40;;;;;;;28.86;43.11;100914.59;5030598;28;20450;-78
2022/06/25 07:23:52;;;;;;;8.93;3.53;;;;;;;28.91;42.95;100909.22;5030231;28;20828;-80
2022/06/25 07:26:20;;;;;;;8.30;3.70;;;;;;;29.25;42.84;100933.75;5030633;28;20092;-79
2022/06/25 07:28:47;;;;;;;8.88;3.50;;;;;;;29.27;42.93;100926.13;5048042;28;20465;-79
2022/06/25 07:31:14;;;;;;;10.68;4.50;;;;;;;29.33;42.70;100911.47;5030532;28;20076;-80
2022/06/25 07:33:43;;;;;;;12.27;3.47;;;;;;;29.26;42.78;100903.44;5030161;28;20037;-80
2022/06/25 07:36:10;;;;;;;9.00;3.65;;;;;;;29.37;42.83;100918.06;5048252;28;20285;-80
2022/06/25 07:38:37;;;;;;;9.63;3.70;;;;;;;29.32;43.44;100901.59;5048646;28;20049;-79
2022/06/25 07:41:04;;;;;;;6.80;3.33;;;;;;;28.95;43.97;100836.59;5047590;28;20061;-79
2022/06/25 07:43:32;;;;;;;10.88;3.78;;;;;;;29.24;42.68;100867.34;5031615;28;20071;-79
2022/06/25 07:45:58;;;;;;;8.27;3.33;;;;;;;29.58;42.59;100914.50;5032328;28;20052;-80
2022/06/25 07:48:25;;;;;;;8.77;3.92;;;;;;;29.66;42.27;100915.13;5048054;28;20060;-80
2022/06/25 07:53:38;;;;;;;9.52;3.30;;;;;;;29.23;43.15;100859.41;5047930;28;20076;-80
2022/06/25 07:56:06;;;;;;;10.52;3.67;;;;;;;29.17;42.55;100850.28;5029663;28;20077;-80
2022/06/25 07:58:34;;;;;;;10.23;3.83;;;;;;;29.79;42.16;100909.31;5047073;28;20045;-79
2022/06/25 08:01:01;;;;;;;11.00;3.58;;;;;;;29.78;42.82;100904.91;5030160;28;20049;-78
2022/06/25 08:03:29;;;;;;;7.07;3.72;;;;;;;29.71;42.95;100904.28;5047185;28;20059;-79
2022/06/25 08:05:57;;;;;;;10.85;3.78;;;;;;;29.73;42.21;100902.13;5029511;28;20049;-80
2022/06/25 08:08:24;;;;;;;14.27;3.90;;;;;;;29.78;42.01;100896.69;5029129;28;20110;-79
2022/06/25 08:10:51;;;;;;;8.48;3.45;;;;;;;29.69;42.20;100876.38;5047285;28;20053;-78
2022/06/25 08:13:20;;;;;;;9.07;4.10;;;;;;;29.75;41.71;100856.19;5029778;28;20126;-79
2022/06/25 08:15:47;;;;;;;12.88;3.80;;;;;;;29.92;42.26;100905.34;5029548;28;20057;-79
2022/06/25 08:18:15;;;;;;;8.25;3.33;;;;;;;29.93;42.28;100899.63;5047189;28;20045;-79
2022/06/25 08:20:41;;;;;;;10.75;3.63;;;;;;;29.87;42.54;100895.16;5028838;28;20321;-78
2022/06/25 08:23:08;;;;;;;12.18;4.18;;;;;;;29.82;42.33;100873.22;5029212;28;20053;-79
2022/06/25 08:25:35;;;;;;;9.82;3.40;;;;;;;30.12;42.00;100907.44;5029548;28;20045;-80
2022/06/25 08:28:05;;;;;;;9.98;3.92;;;;;;;30.07;41.78;100900.00;5030098;28;20049;-77
2022/06/25 08:30:32;;;;;;;10.07;4.07;;;;;;;30.06;41.79;100890.16;5030068;28;20080;-79
2022/06/25 08:32:58;;;;;;;14.23;3.80;;;;;;;30.15;41.72;100894.06;5049840;28;20049;-79
2022/06/25 08:35:25;;;;;;;9.60;3.50;;;;;;;30.26;41.59;100900.47;5051372;28;20037;-79
2022/06/25 08:37:52;;;;;;;10.90;3.88;;;;;;;29.97;41.43;100836.97;5034310;28;20237;-80
2022/06/25 08:40:20;;;;;;;9.98;3.95;;;;;;;30.11;41.02;100849.13;5028542;28;20054;-79
2022/06/25 08:42:50;;;;;;;8.63;3.63;;;;;;;30.23;40.76;100846.22;5026121;28;20103;-78
2022/06/25 08:45:18;;;;;;;9.20;3.60;;;;;;;30.40;41.55;100896.22;5026020;28;20107;-79
2022/06/25 08:47:49;;;;;;;12.82;4.13;;;;;;;30.55;40.42;100902.91;5026842;28;20157;-79
2022/06/25 08:50:19;;;;;;;6.07;3.25;;;;;;;30.42;41.26;100887.75;5025857;28;20115;-80
2022/06/25 08:52:49;;;;;;;12.48;3.65;;;;;;;30.38;40.74;100865.53;5029527;28;20056;-79
2022/06/25 08:55:38;;;;;;;8.30;3.58;;;;;;;30.56;41.13;100902.66;5046802;28;20244;-79
2022/06/25 08:58:06;;;;;;;11.68;3.92;;;;;;;30.53;40.99;100905.09;5028913;28;20081;-80
2022/06/25 09:00:35;;;;;;;10.70;3.88;;;;;;;30.67;40.99;100914.50;5029751;28;20487;-79
2022/06/25 09:03:03;;;;;;;8.20;3.75;;;;;;;30.60;40.70;100900.22;5031608;28;20055;-79
2022/06/25 09:05:32;;;;;;;7.80;3.97;;;;;;;30.38;41.09;100860.06;5021605;28;20499;-78
2022/06/25 09:08:01;;;;;;;11.70;3.83;;;;;;;30.36;40.68;100864.97;5012444;28;20053;-79
2022/06/25 09:10:29;;;;;;;5.90;3.67;;;;;;;30.53;40.82;100885.91;5026689;28;20053;-80
2022/06/25 09:12:59;;;;;;;9.73;3.15;;;;;;;30.61;40.40;100891.75;5032712;28;20041;-79
2022/06/25 09:15:38;;;;;;;10.23;3.92;;;;;;;30.72;40.21;100902.75;5031437;28;20052;-79
2022/06/25 09:18:16;;;;;;;10.15;3.97;;;;;;;30.75;39.79;100892.09;5032421;28;20061;-80
2022/06/25 09:20:56;;;;;;;9.15;3.80;;;;;;;30.84;40.45;100901.50;5031624;28;20055;-80
2022/06/25 09:23:24;;;;;;;6.85;3.75;;;;;;;31.00;39.85;100901.59;5031542;28;20502;-80
2022/06/25 09:26:10;;;;;;;14.13;4.20;;;;;;;30.27;39.51;100742.50;5047569;28;20474;-80
2022/06/25 09:28:42;;;;;;;14.45;4.53;;;;;;;30.87;39.73;100848.88;5046604;28;20122;-80
2022/06/25 09:31:09;;;;;;;7.95;3.72;;;;;;;31.14;39.64;100877.25;5049256;28;20060;-80
2022/06/25 09:33:40;;;;;;;9.73;3.28;;;;;;;31.19;38.97;100880.88;5031406;28;20570;-80
2022/06/25 09:36:09;;;;;;;6.78;3.83;;;;;;;30.95;39.73;100830.28;5031048;28;20048;-79
2022/06/25 09:38:49;;;;;;;11.68;3.80;;;;;;;31.38;39.37;100891.34;5030669;28;20427;-79
2022/06/25 09:41:16;;;;;;;11.25;4.00;;;;;;;31.32;38.41;100856.78;5047547;28;20061;-79
2022/06/25 09:43:47;;;;;;;10.15;4.57;;;;;;;31.29;39.38;100858.97;5031462;28;20053;-78
2022/06/25 09:46:15;;;;;;;12.13;3.95;;;;;;;31.69;38.53;100892.31;5043908;28;20139;-79
2022/06/25 09:48:42;;;;;;;9.00;3.50;;;;;;;31.70;38.36;100881.06;5027497;28;20323;-79
2022/06/25 09:51:13;;;;;;;7.00;3.65;;;;;;;31.25;38.72;100808.47;5027844;28;20041;-79
2022/06/25 09:53:48;;;;;;;6.90;3.10;;;;;;;31.78;37.77;100852.25;5042206;28;20057;-80
2022/06/25 09:56:22;;;;;;;10.82;4.30;;;;;;;31.86;38.80;100861.88;5032524;28;20322;-78
2022/06/25 09:58:51;;;;;;;11.05;3.70;;;;;;;32.04;38.01;100866.03;5033169;28;20053;-79
2022/06/25 10:01:20;;;;;;;6.38;3.63;;;;;;;31.71;37.54;100822.34;5032778;28;20094;-79
2022/06/25 10:03:47;;;;;;;6.65;4.00;;;;;;;32.13;37.45;100875.38;5036599;28;20055;-80
2022/06/25 10:06:16;;;;;;;9.48;3.40;;;;;;;32.08;37.70;100848.75;5053258;28;20052;-79
2022/06/25 10:08:47;;;;;;;13.38;3.90;;;;;;;32.21;36.71;100835.56;5055270;28;20045;-79
2022/06/25 10:11:13;;;;;;;;;;;;;;;32.48;36.41;100874.56;5054961;28;20049;-79
2022/06/25 10:13:41;;;;;;;7.90;3.30;;;;;;;32.44;36.51;100862.47;5035526;28;19921;-79
2022/06/25 10:16:08;;;;;;;6.70;4.40;;;;;;;31.72;36.54;100749.88;5032454;28;20065;-79
2022/06/25 10:18:36;;;;;;;4.60;3.28;;;;;;;32.49;36.66;100865.22;5031656;28;20059;-80
2022/06/25 10:21:03;;;;;;;7.70;3.25;;;;;;;32.80;36.22;100867.13;5031917;28;20071;-78
2022/06/25 10:23:41;;;;;;;9.73;2.92;;;;;;;32.88;36.03;100850.03;5049029;28;20041;-79
2022/06/25 10:26:10;;;;;;;8.15;3.42;;;;;;;33.27;35.84;100861.19;5031234;28;20114;-78
2022/06/25 10:28:36;;;;;;;9.93;3.65;;;;;;;33.27;35.09;100850.19;5048935;28;20052;-80
2022/06/25 10:31:12;;;;;;;11.10;3.67;;;;;;;33.27;34.64;100830.09;5031138;28;20053;-79
2022/06/25 10:33:57;;;;;;;8.35;3.53;;;;;;;33.27;35.02;100811.66;5030917;28;20514;-79
2022/06/25 10:36:43;;;;;;;9.07;3.70;;;;;;;33.67;35.11;100870.38;5030791;28;20399;-79
2022/06/25 10:39:22;;;;;;;8.32;3.13;;;;;;;33.78;34.23;100862.84;5048515;28;20044;-79
2022/06/25 10:45:14;;;;;;;10.07;3.63;;;;;;;34.18;33.41;100867.28;5048784;28;20293;-80
2022/06/25 10:47:52;;;;;;;8.02;3.25;;;;;;;34.18;33.09;100834.22;5030863;28;20053;-82
2022/06/25 10:50:22;;;;;;;9.27;3.65;;;;;;;34.29;33.17;100856.16;5030085;28;20107;-80
2022/06/25 10:53:08;;;;;;;7.53;3.47;;;;;;;34.42;33.47;100850.81;5041447;28;20077;-80
2022/06/25 10:55:48;;;;;;;3.60;3.05;;;;;;;34.57;33.10;100841.56;5011092;28;20083;-79
2022/06/25 10:58:26;;;;;;;10.20;4.22;;;;;;;33.78;32.91;100748.03;5011873;28;20057;-78
2022/06/25 11:00:58;;;;;;;13.63;3.42;;;;;;;34.53;32.77;100848.75;5011386;28;20488;-79
2022/06/25 11:03:28;;;;;;;10.15;3.25;;;;;;;34.53;32.62;100851.50;4993655;28;20053;-79
2022/06/25 11:05:59;;;;;;;9.02;3.08;;;;;;;34.62;32.28;100851.75;4990904;28;20049;-79
2022/06/25 11:08:36;;;;;;;6.07;3.28;;;;;;;34.68;32.65;100853.31;4990883;28;20441;-79
2022/06/25 11:11:05;;;;;;;7.65;3.55;;;;;;;34.53;32.37;100846.00;4990696;28;20061;-79
2022/06/25 11:13:32;;;;;;;6.40;3.55;;;;;;;34.14;32.58;100811.09;4991087;28;20073;-78
2022/06/25 11:15:59;;;;;;;9.23;3.80;;;;;;;34.07;33.03;100816.09;5009407;28;20038;-80
2022/06/25 11:18:26;;;;;;;7.78;3.35;;;;;;;34.15;33.36;100840.28;5008865;28;20053;-79
2022/06/25 11:20:52;;;;;;;9.98;3.60;;;;;;;33.99;33.13;100838.75;4990542;28;20042;-79
2022/06/25 11:23:19;;;;;;;9.25;3.55;;;;;;;33.85;33.28;100835.81;4990892;28;20536;-80
2022/06/25 11:28:52;;;;;;;10.02;3.53;;;;;;;33.46;32.86;100772.50;5008729;28;20371;-80
2022/06/25 11:31:23;;;;;;;6.18;3.30;;;;;;;33.53;33.96;100841.81;4990850;28;20125;-80
2022/06/25 11:33:52;;;;;;;8.27;3.60;;;;;;;33.11;34.21;100788.09;4990847;28;20534;-80
2022/06/25 11:36:20;;;;;;;7.57;3.53;;;;;;;33.35;34.32;100849.59;4990483;28;20042;-80
2022/06/25 11:38:54;;;;;;;7.82;3.65;;;;;;;33.32;34.03;100828.13;4992706;28;20531;-79
2022/06/25 11:41:23;;;;;;;5.65;3.30;;;;;;;33.30;34.79;100846.03;5010264;28;20095;-78
2022/06/25 11:43:50;;;;;;;7.10;3.28;;;;;;;33.10;34.03;100823.03;5028054;28;20463;-79